Portada
METAR-TAF:

METAR-TAF

Aeroports :

Gwadar, Pakistan

latitud: 25-13-59N, longitud: 062-19-46E, altitud: 29 m

Observació

L'informe es va fer fa 14 minuts, a les 08:00 UTC
Vent 10 kt del Est
Temperatura 30°C
Humitat 46%
Pressió
Visibilitat: 4000 m
Escasses núvols a una alçada de 2000 ft

METAR: OPGD 150800Z 08010KT 4000 FEW020 30/17 QNH1017

Hora: 13:14 (08:14 UTC)

Pronòstic

L'informe es va fer fa 4 hores i 44 minuts, a les 03:30 UTC
Pronòstic vàlid del 15 a les 06 UTC al 16 a les 06 UTC
Vent 5 kt del Oest/Sud-Oest amb ràfegues de 15 kt
Visibilitat: 6000 m
Núvols disperses a una alçada de 2500 ft
A partir de les 15 a les 1800 UTC
Vent 5 kt del Nord-Oest
Visibilitat: 4000 m
calitja
Temporalment
l' 16 a les 00 UTC al 16 a les 04 UTC
Vent 5 kt del Nord
Visibilitat: 3000 m
calitja

TAF: OPGD 150330Z 1506/1606 25005G15KT 6000 SCT025 FM151800 32005KT 4000 HZ NSC TEMPO 1600/1604 36005KT 3000 HZ NSC

Observacions i pronòstics meteorològics de més de 4000 aeroports (METAR i TAF).

Les estacions disponibles són els punts grocs i vermells al mapa.

Posi el ratolí al punt desitjat per veure el nom de l'estació.

Feu clic per veure les observacions i els pronòstics meteorològics.

Per canviar el mapa: feu clic els botons verds amb una creu de color negre per apropar; al botó verd amb un guió per allunyar la imatge; o en les fletxes verdes per a mapes adjacents.


METAR-TAF: